sensor_id;sensor_type;location;lat;lon;timestamp;P1;durP1;ratioP1;P2;durP2;ratioP2
67595;SDS011;54410;48.694;8.934;2023-05-10T00:00:22;1.38;;;0.90;;
67595;SDS011;54410;48.694;8.934;2023-05-10T00:02:48;0.75;;;0.70;;
67595;SDS011;54410;48.694;8.934;2023-05-10T00:05:14;0.73;;;0.73;;
67595;SDS011;54410;48.694;8.934;2023-05-10T00:07:40;0.52;;;0.52;;
67595;SDS011;54410;48.694;8.934;2023-05-10T00:10:09;0.60;;;0.60;;
67595;SDS011;54410;48.694;8.934;2023-05-10T00:12:35;0.60;;;0.60;;
67595;SDS011;54410;48.694;8.934;2023-05-10T00:15:01;0.68;;;0.68;;
67595;SDS011;54410;48.694;8.934;2023-05-10T00:17:28;0.50;;;0.50;;
67595;SDS011;54410;48.694;8.934;2023-05-10T00:19:53;3.42;;;0.52;;
67595;SDS011;54410;48.694;8.934;2023-05-10T00:22:19;0.28;;;0.28;;
67595;SDS011;54410;48.694;8.934;2023-05-10T00:24:45;0.22;;;0.22;;
67595;SDS011;54410;48.694;8.934;2023-05-10T00:27:10;4.15;;;0.40;;
67595;SDS011;54410;48.694;8.934;2023-05-10T00:29:37;1.67;;;0.30;;
67595;SDS011;54410;48.694;8.934;2023-05-10T00:32:03;0.30;;;0.30;;
67595;SDS011;54410;48.694;8.934;2023-05-10T00:34:29;0.25;;;0.25;;
67595;SDS011;54410;48.694;8.934;2023-05-10T00:36:55;0.28;;;0.28;;
67595;SDS011;54410;48.694;8.934;2023-05-10T00:39:21;0.20;;;0.20;;
67595;SDS011;54410;48.694;8.934;2023-05-10T00:41:47;0.30;;;0.30;;
67595;SDS011;54410;48.694;8.934;2023-05-10T00:44:13;0.30;;;0.30;;
67595;SDS011;54410;48.694;8.934;2023-05-10T00:46:39;1.45;;;0.40;;
67595;SDS011;54410;48.694;8.934;2023-05-10T00:49:05;1.17;;;0.35;;
67595;SDS011;54410;48.694;8.934;2023-05-10T00:51:31;0.22;;;0.22;;
67595;SDS011;54410;48.694;8.934;2023-05-10T00:53:57;0.30;;;0.30;;
67595;SDS011;54410;48.694;8.934;2023-05-10T00:56:24;0.32;;;0.32;;
67595;SDS011;54410;48.694;8.934;2023-05-10T00:58:50;0.40;;;0.40;;
67595;SDS011;54410;48.694;8.934;2023-05-10T01:01:16;0.40;;;0.40;;
67595;SDS011;54410;48.694;8.934;2023-05-10T01:03:42;0.20;;;0.20;;
67595;SDS011;54410;48.694;8.934;2023-05-10T01:06:08;0.30;;;0.30;;
67595;SDS011;54410;48.694;8.934;2023-05-10T01:08:35;0.45;;;0.20;;
67595;SDS011;54410;48.694;8.934;2023-05-10T01:11:01;1.00;;;0.40;;
67595;SDS011;54410;48.694;8.934;2023-05-10T01:13:34;0.32;;;0.20;;
67595;SDS011;54410;48.694;8.934;2023-05-10T01:16:02;0.77;;;0.77;;
67595;SDS011;54410;48.694;8.934;2023-05-10T01:18:32;0.35;;;0.20;;
67595;SDS011;54410;48.694;8.934;2023-05-10T01:21:13;0.22;;;0.22;;
67595;SDS011;54410;48.694;8.934;2023-05-10T01:23:55;1.85;;;0.45;;
67595;SDS011;54410;48.694;8.934;2023-05-10T01:35:32;1.75;;;0.30;;
67595;SDS011;54410;48.694;8.934;2023-05-10T01:46:36;0.40;;;0.40;;
67595;SDS011;54410;48.694;8.934;2023-05-10T01:49:02;1.23;;;0.75;;
67595;SDS011;54410;48.694;8.934;2023-05-10T01:51:31;0.47;;;0.47;;
67595;SDS011;54410;48.694;8.934;2023-05-10T01:54:02;0.82;;;0.60;;
67595;SDS011;54410;48.694;8.934;2023-05-10T01:56:30;0.40;;;0.40;;
67595;SDS011;54410;48.694;8.934;2023-05-10T01:58:57;0.52;;;0.45;;
67595;SDS011;54410;48.694;8.934;2023-05-10T02:01:25;0.30;;;0.30;;
67595;SDS011;54410;48.694;8.934;2023-05-10T02:03:51;1.52;;;0.98;;
67595;SDS011;54410;48.694;8.934;2023-05-10T02:06:19;5.35;;;3.90;;
67595;SDS011;54410;48.694;8.934;2023-05-10T02:08:46;4.57;;;4.18;;
67595;SDS011;54410;48.694;8.934;2023-05-10T02:11:13;5.47;;;4.93;;
67595;SDS011;54410;48.694;8.934;2023-05-10T02:13:39;4.35;;;3.95;;
67595;SDS011;54410;48.694;8.934;2023-05-10T02:16:07;3.25;;;2.88;;
67595;SDS011;54410;48.694;8.934;2023-05-10T02:18:33;1.40;;;1.30;;
67595;SDS011;54410;48.694;8.934;2023-05-10T02:20:59;2.53;;;1.30;;
67595;SDS011;54410;48.694;8.934;2023-05-10T02:23:26;0.80;;;0.80;;
67595;SDS011;54410;48.694;8.934;2023-05-10T02:25:53;0.77;;;0.68;;
67595;SDS011;54410;48.694;8.934;2023-05-10T02:28:21;0.65;;;0.65;;
67595;SDS011;54410;48.694;8.934;2023-05-10T02:30:47;0.52;;;0.52;;
67595;SDS011;54410;48.694;8.934;2023-05-10T02:33:13;2.15;;;0.80;;
67595;SDS011;54410;48.694;8.934;2023-05-10T02:35:39;0.60;;;0.60;;
67595;SDS011;54410;48.694;8.934;2023-05-10T02:38:05;1.98;;;0.90;;
67595;SDS011;54410;48.694;8.934;2023-05-10T02:40:32;0.90;;;0.90;;
67595;SDS011;54410;48.694;8.934;2023-05-10T02:42:59;1.02;;;1.00;;
67595;SDS011;54410;48.694;8.934;2023-05-10T02:45:27;1.00;;;1.00;;
67595;SDS011;54410;48.694;8.934;2023-05-10T02:47:54;2.22;;;1.10;;
67595;SDS011;54410;48.694;8.934;2023-05-10T02:50:21;0.80;;;0.80;;
67595;SDS011;54410;48.694;8.934;2023-05-10T02:52:49;0.82;;;0.82;;
67595;SDS011;54410;48.694;8.934;2023-05-10T02:55:20;1.25;;;0.93;;
67595;SDS011;54410;48.694;8.934;2023-05-10T02:57:55;1.33;;;1.02;;
67595;SDS011;54410;48.694;8.934;2023-05-10T03:00:22;1.10;;;0.95;;
67595;SDS011;54410;48.694;8.934;2023-05-10T03:02:48;1.48;;;1.00;;
67595;SDS011;54410;48.694;8.934;2023-05-10T03:05:14;3.50;;;1.30;;
67595;SDS011;54410;48.694;8.934;2023-05-10T03:07:40;0.95;;;0.90;;
67595;SDS011;54410;48.694;8.934;2023-05-10T03:10:06;1.20;;;1.10;;
67595;SDS011;54410;48.694;8.934;2023-05-10T03:15:31;1.17;;;1.08;;
67595;SDS011;54410;48.694;8.934;2023-05-10T03:18:01;1.05;;;0.95;;
67595;SDS011;54410;48.694;8.934;2023-05-10T03:20:35;0.93;;;0.90;;
67595;SDS011;54410;48.694;8.934;2023-05-10T03:23:35;1.40;;;1.20;;
67595;SDS011;54410;48.694;8.934;2023-05-10T03:25:54;1.17;;;1.08;;
67595;SDS011;54410;48.694;8.934;2023-05-10T03:28:20;1.20;;;1.10;;
67595;SDS011;54410;48.694;8.934;2023-05-10T03:30:47;3.20;;;1.20;;
67595;SDS011;54410;48.694;8.934;2023-05-10T03:33:13;1.13;;;1.02;;
67595;SDS011;54410;48.694;8.934;2023-05-10T03:35:39;1.30;;;1.20;;
67595;SDS011;54410;48.694;8.934;2023-05-10T03:38:05;1.40;;;1.10;;
67595;SDS011;54410;48.694;8.934;2023-05-10T03:40:31;1.95;;;1.52;;
67595;SDS011;54410;48.694;8.934;2023-05-10T03:42:58;1.90;;;1.75;;
67595;SDS011;54410;48.694;8.934;2023-05-10T03:45:24;2.33;;;1.70;;
67595;SDS011;54410;48.694;8.934;2023-05-10T03:47:50;3.78;;;1.75;;
67595;SDS011;54410;48.694;8.934;2023-05-10T03:50:16;2.42;;;2.22;;
67595;SDS011;54410;48.694;8.934;2023-05-10T03:52:43;1.70;;;1.55;;
67595;SDS011;54410;48.694;8.934;2023-05-10T03:55:09;1.80;;;1.70;;
67595;SDS011;54410;48.694;8.934;2023-05-10T03:57:35;1.30;;;1.20;;
67595;SDS011;54410;48.694;8.934;2023-05-10T04:00:01;1.05;;;0.95;;
67595;SDS011;54410;48.694;8.934;2023-05-10T04:02:27;1.30;;;1.20;;
67595;SDS011;54410;48.694;8.934;2023-05-10T04:04:54;1.30;;;1.20;;
67595;SDS011;54410;48.694;8.934;2023-05-10T04:07:20;1.23;;;1.13;;
67595;SDS011;54410;48.694;8.934;2023-05-10T04:09:46;1.15;;;1.05;;
67595;SDS011;54410;48.694;8.934;2023-05-10T04:12:12;2.90;;;0.82;;
67595;SDS011;54410;48.694;8.934;2023-05-10T04:14:38;1.23;;;1.13;;
67595;SDS011;54410;48.694;8.934;2023-05-10T04:17:04;1.02;;;0.93;;
67595;SDS011;54410;48.694;8.934;2023-05-10T04:19:31;3.08;;;1.23;;
67595;SDS011;54410;48.694;8.934;2023-05-10T04:21:57;1.38;;;1.20;;
67595;SDS011;54410;48.694;8.934;2023-05-10T04:24:23;1.20;;;1.10;;
67595;SDS011;54410;48.694;8.934;2023-05-10T04:26:49;1.40;;;1.30;;
67595;SDS011;54410;48.694;8.934;2023-05-10T04:29:15;1.48;;;1.30;;
67595;SDS011;54410;48.694;8.934;2023-05-10T04:31:41;2.10;;;1.10;;
67595;SDS011;54410;48.694;8.934;2023-05-10T04:34:07;1.40;;;1.30;;
67595;SDS011;54410;48.694;8.934;2023-05-10T04:36:33;1.35;;;1.00;;
67595;SDS011;54410;48.694;8.934;2023-05-10T04:39:01;1.38;;;1.00;;
67595;SDS011;54410;48.694;8.934;2023-05-10T04:41:27;1.45;;;1.30;;
67595;SDS011;54410;48.694;8.934;2023-05-10T04:43:53;1.67;;;1.20;;
67595;SDS011;54410;48.694;8.934;2023-05-10T04:46:19;2.33;;;1.60;;
67595;SDS011;54410;48.694;8.934;2023-05-10T04:48:45;3.45;;;1.40;;
67595;SDS011;54410;48.694;8.934;2023-05-10T04:51:11;3.13;;;1.42;;
67595;SDS011;54410;48.694;8.934;2023-05-10T04:53:38;1.90;;;1.30;;
67595;SDS011;54410;48.694;8.934;2023-05-10T04:56:04;2.13;;;1.23;;
67595;SDS011;54410;48.694;8.934;2023-05-10T04:58:30;1.30;;;1.20;;
67595;SDS011;54410;48.694;8.934;2023-05-10T05:00:56;1.25;;;1.13;;
67595;SDS011;54410;48.694;8.934;2023-05-10T05:03:22;1.27;;;1.17;;
67595;SDS011;54410;48.694;8.934;2023-05-10T05:05:48;2.33;;;1.17;;
67595;SDS011;54410;48.694;8.934;2023-05-10T05:08:14;1.33;;;1.17;;
67595;SDS011;54410;48.694;8.934;2023-05-10T05:10:40;1.30;;;1.20;;
67595;SDS011;54410;48.694;8.934;2023-05-10T05:13:06;1.45;;;1.35;;
67595;SDS011;54410;48.694;8.934;2023-05-10T05:15:32;1.30;;;1.20;;
67595;SDS011;54410;48.694;8.934;2023-05-10T05:17:58;1.40;;;1.25;;
67595;SDS011;54410;48.694;8.934;2023-05-10T05:20:25;2.50;;;1.20;;
67595;SDS011;54410;48.694;8.934;2023-05-10T05:22:50;1.20;;;1.10;;
67595;SDS011;54410;48.694;8.934;2023-05-10T05:25:16;2.65;;;1.10;;
67595;SDS011;54410;48.694;8.934;2023-05-10T05:27:42;1.27;;;1.17;;
67595;SDS011;54410;48.694;8.934;2023-05-10T05:30:08;1.25;;;1.00;;
67595;SDS011;54410;48.694;8.934;2023-05-10T05:32:34;1.40;;;1.30;;
67595;SDS011;54410;48.694;8.934;2023-05-10T05:35:00;4.57;;;1.10;;
67595;SDS011;54410;48.694;8.934;2023-05-10T05:37:26;1.20;;;1.10;;
67595;SDS011;54410;48.694;8.934;2023-05-10T05:39:52;1.27;;;0.90;;
67595;SDS011;54410;48.694;8.934;2023-05-10T05:42:19;1.00;;;1.00;;
67595;SDS011;54410;48.694;8.934;2023-05-10T05:44:45;1.70;;;1.10;;
67595;SDS011;54410;48.694;8.934;2023-05-10T05:47:11;1.00;;;0.90;;
67595;SDS011;54410;48.694;8.934;2023-05-10T05:49:37;1.52;;;1.20;;
67595;SDS011;54410;48.694;8.934;2023-05-10T05:52:04;0.80;;;0.80;;
67595;SDS011;54410;48.694;8.934;2023-05-10T05:54:30;0.88;;;0.80;;
67595;SDS011;54410;48.694;8.934;2023-05-10T05:56:57;0.98;;;0.70;;
67595;SDS011;54410;48.694;8.934;2023-05-10T05:59:23;0.70;;;0.70;;
67595;SDS011;54410;48.694;8.934;2023-05-10T06:01:49;0.60;;;0.60;;
67595;SDS011;54410;48.694;8.934;2023-05-10T06:04:15;0.63;;;0.63;;
67595;SDS011;54410;48.694;8.934;2023-05-10T06:06:42;0.50;;;0.50;;
67595;SDS011;54410;48.694;8.934;2023-05-10T06:09:08;0.70;;;0.70;;
67595;SDS011;54410;48.694;8.934;2023-05-10T06:11:34;0.90;;;0.80;;
67595;SDS011;54410;48.694;8.934;2023-05-10T06:14:00;0.80;;;0.80;;
67595;SDS011;54410;48.694;8.934;2023-05-10T06:16:26;0.70;;;0.70;;
67595;SDS011;54410;48.694;8.934;2023-05-10T06:18:52;1.10;;;1.00;;
67595;SDS011;54410;48.694;8.934;2023-05-10T06:21:18;0.77;;;0.77;;
67595;SDS011;54410;48.694;8.934;2023-05-10T06:23:44;1.00;;;0.90;;
67595;SDS011;54410;48.694;8.934;2023-05-10T06:26:10;0.93;;;0.70;;
67595;SDS011;54410;48.694;8.934;2023-05-10T06:28:36;0.90;;;0.90;;
67595;SDS011;54410;48.694;8.934;2023-05-10T06:31:05;1.05;;;0.90;;
67595;SDS011;54410;48.694;8.934;2023-05-10T06:33:31;0.90;;;0.90;;
67595;SDS011;54410;48.694;8.934;2023-05-10T06:35:58;0.80;;;0.80;;
67595;SDS011;54410;48.694;8.934;2023-05-10T06:38:24;0.90;;;0.90;;
67595;SDS011;54410;48.694;8.934;2023-05-10T06:40:49;1.95;;;0.70;;
67595;SDS011;54410;48.694;8.934;2023-05-10T06:43:16;1.92;;;0.95;;
67595;SDS011;54410;48.694;8.934;2023-05-10T06:45:41;1.60;;;0.85;;
67595;SDS011;54410;48.694;8.934;2023-05-10T06:48:07;0.63;;;0.60;;
67595;SDS011;54410;48.694;8.934;2023-05-10T06:50:33;0.88;;;0.80;;
67595;SDS011;54410;48.694;8.934;2023-05-10T06:52:59;1.25;;;0.90;;
67595;SDS011;54410;48.694;8.934;2023-05-10T06:55:25;2.45;;;0.80;;
67595;SDS011;54410;48.694;8.934;2023-05-10T06:57:51;0.73;;;0.73;;
67595;SDS011;54410;48.694;8.934;2023-05-10T07:00:17;1.77;;;0.70;;
67595;SDS011;54410;48.694;8.934;2023-05-10T07:02:43;0.90;;;0.80;;
67595;SDS011;54410;48.694;8.934;2023-05-10T07:05:09;1.15;;;0.77;;
67595;SDS011;54410;48.694;8.934;2023-05-10T07:07:35;0.50;;;0.50;;
67595;SDS011;54410;48.694;8.934;2023-05-10T07:10:01;0.60;;;0.60;;
67595;SDS011;54410;48.694;8.934;2023-05-10T07:12:27;1.10;;;0.68;;
67595;SDS011;54410;48.694;8.934;2023-05-10T07:14:53;0.65;;;0.65;;
67595;SDS011;54410;48.694;8.934;2023-05-10T07:17:19;0.77;;;0.70;;
67595;SDS011;54410;48.694;8.934;2023-05-10T07:19:46;1.55;;;0.80;;
67595;SDS011;54410;48.694;8.934;2023-05-10T07:22:12;1.67;;;0.60;;
67595;SDS011;54410;48.694;8.934;2023-05-10T07:24:38;2.10;;;0.68;;
67595;SDS011;54410;48.694;8.934;2023-05-10T07:27:04;0.68;;;0.65;;
67595;SDS011;54410;48.694;8.934;2023-05-10T07:29:30;2.22;;;0.80;;
67595;SDS011;54410;48.694;8.934;2023-05-10T07:31:56;2.33;;;0.55;;
67595;SDS011;54410;48.694;8.934;2023-05-10T07:34:22;1.05;;;0.55;;
67595;SDS011;54410;48.694;8.934;2023-05-10T07:36:48;0.50;;;0.50;;
67595;SDS011;54410;48.694;8.934;2023-05-10T07:39:14;1.30;;;0.60;;
67595;SDS011;54410;48.694;8.934;2023-05-10T07:41:41;1.00;;;0.68;;
67595;SDS011;54410;48.694;8.934;2023-05-10T07:44:07;0.60;;;0.60;;
67595;SDS011;54410;48.694;8.934;2023-05-10T07:46:33;1.95;;;0.70;;
67595;SDS011;54410;48.694;8.934;2023-05-10T07:48:59;1.00;;;0.68;;
67595;SDS011;54410;48.694;8.934;2023-05-10T07:51:25;1.67;;;0.90;;
67595;SDS011;54410;48.694;8.934;2023-05-10T07:53:51;0.70;;;0.70;;
67595;SDS011;54410;48.694;8.934;2023-05-10T07:58:45;0.50;;;0.50;;
67595;SDS011;54410;48.694;8.934;2023-05-10T08:01:11;0.95;;;0.65;;
67595;SDS011;54410;48.694;8.934;2023-05-10T08:03:37;0.63;;;0.63;;
67595;SDS011;54410;48.694;8.934;2023-05-10T08:06:03;0.50;;;0.40;;
67595;SDS011;54410;48.694;8.934;2023-05-10T08:08:29;0.60;;;0.60;;
67595;SDS011;54410;48.694;8.934;2023-05-10T08:10:55;0.43;;;0.43;;
67595;SDS011;54410;48.694;8.934;2023-05-10T08:13:21;0.50;;;0.45;;
67595;SDS011;54410;48.694;8.934;2023-05-10T08:15:46;0.40;;;0.30;;
67595;SDS011;54410;48.694;8.934;2023-05-10T08:18:13;2.08;;;0.30;;
67595;SDS011;54410;48.694;8.934;2023-05-10T08:20:39;0.40;;;0.40;;
67595;SDS011;54410;48.694;8.934;2023-05-10T08:23:05;0.30;;;0.30;;
67595;SDS011;54410;48.694;8.934;2023-05-10T08:25:31;0.40;;;0.20;;
67595;SDS011;54410;48.694;8.934;2023-05-10T08:27:57;2.90;;;0.40;;
67595;SDS011;54410;48.694;8.934;2023-05-10T08:30:23;0.65;;;0.30;;
67595;SDS011;54410;48.694;8.934;2023-05-10T08:32:49;0.20;;;0.20;;
67595;SDS011;54410;48.694;8.934;2023-05-10T08:35:15;0.20;;;0.20;;
67595;SDS011;54410;48.694;8.934;2023-05-10T08:37:41;1.70;;;0.30;;
67595;SDS011;54410;48.694;8.934;2023-05-10T08:40:07;1.48;;;0.30;;
67595;SDS011;54410;48.694;8.934;2023-05-10T08:42:36;0.30;;;0.30;;
67595;SDS011;54410;48.694;8.934;2023-05-10T08:45:03;0.20;;;0.20;;
67595;SDS011;54410;48.694;8.934;2023-05-10T08:47:30;0.20;;;0.20;;
67595;SDS011;54410;48.694;8.934;2023-05-10T08:49:55;0.52;;;0.45;;
67595;SDS011;54410;48.694;8.934;2023-05-10T08:52:24;0.30;;;0.30;;
67595;SDS011;54410;48.694;8.934;2023-05-10T08:54:51;2.10;;;0.40;;
67595;SDS011;54410;48.694;8.934;2023-05-10T08:57:18;1.42;;;0.50;;
67595;SDS011;54410;48.694;8.934;2023-05-10T08:59:44;0.85;;;0.43;;
67595;SDS011;54410;48.694;8.934;2023-05-10T09:02:10;0.40;;;0.30;;
67595;SDS011;54410;48.694;8.934;2023-05-10T09:04:37;0.55;;;0.30;;
67595;SDS011;54410;48.694;8.934;2023-05-10T09:07:03;0.32;;;0.30;;
67595;SDS011;54410;48.694;8.934;2023-05-10T09:09:29;0.20;;;0.20;;
67595;SDS011;54410;48.694;8.934;2023-05-10T09:11:56;0.70;;;0.30;;
67595;SDS011;54410;48.694;8.934;2023-05-10T09:14:23;0.25;;;0.25;;
67595;SDS011;54410;48.694;8.934;2023-05-10T09:16:50;0.20;;;0.20;;
67595;SDS011;54410;48.694;8.934;2023-05-10T09:19:16;1.13;;;0.40;;
67595;SDS011;54410;48.694;8.934;2023-05-10T09:21:42;0.55;;;0.30;;
67595;SDS011;54410;48.694;8.934;2023-05-10T09:24:08;0.15;;;0.15;;
67595;SDS011;54410;48.694;8.934;2023-05-10T09:26:35;1.08;;;0.10;;
67595;SDS011;54410;48.694;8.934;2023-05-10T09:29:01;2.47;;;0.30;;
67595;SDS011;54410;48.694;8.934;2023-05-10T09:31:46;2.10;;;0.13;;
67595;SDS011;54410;48.694;8.934;2023-05-10T09:34:19;0.20;;;0.17;;
67595;SDS011;54410;48.694;8.934;2023-05-10T09:36:59;0.20;;;0.20;;
67595;SDS011;54410;48.694;8.934;2023-05-10T09:39:31;2.47;;;0.30;;
67595;SDS011;54410;48.694;8.934;2023-05-10T09:42:04;0.28;;;0.20;;
67595;SDS011;54410;48.694;8.934;2023-05-10T09:44:34;0.75;;;0.30;;
67595;SDS011;54410;48.694;8.934;2023-05-10T09:47:00;0.40;;;0.20;;
67595;SDS011;54410;48.694;8.934;2023-05-10T09:49:26;0.98;;;0.40;;
67595;SDS011;54410;48.694;8.934;2023-05-10T09:52:02;4.15;;;0.25;;
67595;SDS011;54410;48.694;8.934;2023-05-10T09:54:28;0.82;;;0.10;;
67595;SDS011;54410;48.694;8.934;2023-05-10T09:56:55;0.68;;;0.20;;
67595;SDS011;54410;48.694;8.934;2023-05-10T09:59:20;1.25;;;0.20;;
67595;SDS011;54410;48.694;8.934;2023-05-10T10:01:51;0.40;;;0.22;;
67595;SDS011;54410;48.694;8.934;2023-05-10T10:04:17;0.13;;;0.10;;
67595;SDS011;54410;48.694;8.934;2023-05-10T10:06:43;0.38;;;0.20;;
67595;SDS011;54410;48.694;8.934;2023-05-10T10:09:09;0.28;;;0.28;;
67595;SDS011;54410;48.694;8.934;2023-05-10T10:11:36;1.08;;;0.40;;
67595;SDS011;54410;48.694;8.934;2023-05-10T10:14:02;0.28;;;0.25;;
67595;SDS011;54410;48.694;8.934;2023-05-10T10:16:29;0.63;;;0.20;;
67595;SDS011;54410;48.694;8.934;2023-05-10T10:18:55;0.35;;;0.28;;
67595;SDS011;54410;48.694;8.934;2023-05-10T10:21:21;0.20;;;0.20;;
67595;SDS011;54410;48.694;8.934;2023-05-10T10:23:48;0.43;;;0.20;;
67595;SDS011;54410;48.694;8.934;2023-05-10T10:26:14;0.38;;;0.30;;
67595;SDS011;54410;48.694;8.934;2023-05-10T10:28:47;0.30;;;0.30;;
67595;SDS011;54410;48.694;8.934;2023-05-10T10:31:55;0.90;;;0.30;;
67595;SDS011;54410;48.694;8.934;2023-05-10T10:34:28;0.40;;;0.30;;
67595;SDS011;54410;48.694;8.934;2023-05-10T10:36:54;0.10;;;0.10;;
67595;SDS011;54410;48.694;8.934;2023-05-10T10:39:21;0.25;;;0.25;;
67595;SDS011;54410;48.694;8.934;2023-05-10T10:41:50;0.60;;;0.30;;
67595;SDS011;54410;48.694;8.934;2023-05-10T10:44:33;0.20;;;0.20;;
67595;SDS011;54410;48.694;8.934;2023-05-10T10:49:31;0.73;;;0.32;;
67595;SDS011;54410;48.694;8.934;2023-05-10T10:54:58;0.50;;;0.40;;
67595;SDS011;54410;48.694;8.934;2023-05-10T10:57:27;1.35;;;0.40;;
67595;SDS011;54410;48.694;8.934;2023-05-10T11:00:37;1.50;;;0.40;;
67595;SDS011;54410;48.694;8.934;2023-05-10T11:02:45;1.20;;;0.32;;
67595;SDS011;54410;48.694;8.934;2023-05-10T11:10:53;0.45;;;0.40;;
67595;SDS011;54410;48.694;8.934;2023-05-10T11:13:28;0.55;;;0.30;;
67595;SDS011;54410;48.694;8.934;2023-05-10T11:15:55;0.95;;;0.60;;
67595;SDS011;54410;48.694;8.934;2023-05-10T11:18:26;1.15;;;0.60;;
67595;SDS011;54410;48.694;8.934;2023-05-10T11:20:55;1.98;;;0.50;;
67595;SDS011;54410;48.694;8.934;2023-05-10T11:23:21;0.75;;;0.43;;
67595;SDS011;54410;48.694;8.934;2023-05-10T11:25:48;1.65;;;0.40;;
67595;SDS011;54410;48.694;8.934;2023-05-10T11:28:16;2.20;;;0.40;;
67595;SDS011;54410;48.694;8.934;2023-05-10T11:30:43;1.65;;;0.80;;
67595;SDS011;54410;48.694;8.934;2023-05-10T11:33:11;1.02;;;0.60;;
67595;SDS011;54410;48.694;8.934;2023-05-10T11:35:40;1.70;;;0.80;;
67595;SDS011;54410;48.694;8.934;2023-05-10T11:38:07;0.88;;;0.50;;
67595;SDS011;54410;48.694;8.934;2023-05-10T11:40:33;2.25;;;0.60;;
67595;SDS011;54410;48.694;8.934;2023-05-10T11:42:59;0.80;;;0.68;;
67595;SDS011;54410;48.694;8.934;2023-05-10T11:45:26;1.88;;;0.80;;
67595;SDS011;54410;48.694;8.934;2023-05-10T11:47:53;0.60;;;0.50;;
67595;SDS011;54410;48.694;8.934;2023-05-10T11:50:19;0.30;;;0.30;;
67595;SDS011;54410;48.694;8.934;2023-05-10T11:52:49;0.30;;;0.28;;
67595;SDS011;54410;48.694;8.934;2023-05-10T11:55:16;0.30;;;0.30;;
67595;SDS011;54410;48.694;8.934;2023-05-10T11:57:42;1.08;;;0.32;;
67595;SDS011;54410;48.694;8.934;2023-05-10T12:00:10;0.55;;;0.30;;
67595;SDS011;54410;48.694;8.934;2023-05-10T12:02:41;0.30;;;0.30;;
67595;SDS011;54410;48.694;8.934;2023-05-10T12:05:07;2.72;;;0.60;;
67595;SDS011;54410;48.694;8.934;2023-05-10T12:07:34;0.40;;;0.30;;
67595;SDS011;54410;48.694;8.934;2023-05-10T12:10:24;0.60;;;0.43;;
67595;SDS011;54410;48.694;8.934;2023-05-10T12:12:49;0.43;;;0.40;;
67595;SDS011;54410;48.694;8.934;2023-05-10T12:15:21;1.00;;;0.30;;
67595;SDS011;54410;48.694;8.934;2023-05-10T12:17:48;0.63;;;0.30;;
67595;SDS011;54410;48.694;8.934;2023-05-10T12:22:54;0.68;;;0.55;;
67595;SDS011;54410;48.694;8.934;2023-05-10T12:25:21;1.25;;;0.52;;
67595;SDS011;54410;48.694;8.934;2023-05-10T12:27:51;0.90;;;0.40;;
67595;SDS011;54410;48.694;8.934;2023-05-10T12:30:21;0.43;;;0.40;;
67595;SDS011;54410;48.694;8.934;2023-05-10T12:32:47;3.22;;;0.55;;
67595;SDS011;54410;48.694;8.934;2023-05-10T12:35:13;3.60;;;0.63;;
67595;SDS011;54410;48.694;8.934;2023-05-10T12:37:39;1.98;;;0.43;;
67595;SDS011;54410;48.694;8.934;2023-05-10T12:40:06;0.82;;;0.45;;
67595;SDS011;54410;48.694;8.934;2023-05-10T12:42:34;1.23;;;0.40;;
67595;SDS011;54410;48.694;8.934;2023-05-10T12:45:00;0.88;;;0.52;;
67595;SDS011;54410;48.694;8.934;2023-05-10T12:47:27;0.57;;;0.50;;
67595;SDS011;54410;48.694;8.934;2023-05-10T12:49:54;1.80;;;0.30;;
67595;SDS011;54410;48.694;8.934;2023-05-10T12:52:20;0.82;;;0.40;;
67595;SDS011;54410;48.694;8.934;2023-05-10T12:54:46;1.42;;;0.43;;
67595;SDS011;54410;48.694;8.934;2023-05-10T12:57:12;2.75;;;0.40;;
67595;SDS011;54410;48.694;8.934;2023-05-10T12:59:38;1.30;;;0.68;;
67595;SDS011;54410;48.694;8.934;2023-05-10T13:02:07;1.08;;;0.35;;
67595;SDS011;54410;48.694;8.934;2023-05-10T13:04:33;0.60;;;0.43;;
67595;SDS011;54410;48.694;8.934;2023-05-10T13:06:59;2.28;;;0.50;;
67595;SDS011;54410;48.694;8.934;2023-05-10T13:09:25;1.75;;;0.57;;
67595;SDS011;54410;48.694;8.934;2023-05-10T13:11:52;2.92;;;0.57;;
67595;SDS011;54410;48.694;8.934;2023-05-10T13:14:19;0.22;;;0.20;;
67595;SDS011;54410;48.694;8.934;2023-05-10T13:16:45;0.73;;;0.55;;
67595;SDS011;54410;48.694;8.934;2023-05-10T13:19:15;1.70;;;0.50;;
67595;SDS011;54410;48.694;8.934;2023-05-10T13:21:41;1.50;;;0.75;;
67595;SDS011;54410;48.694;8.934;2023-05-10T13:24:09;2.58;;;1.63;;
67595;SDS011;54410;48.694;8.934;2023-05-10T13:26:35;1.85;;;0.70;;
67595;SDS011;54410;48.694;8.934;2023-05-10T13:29:02;2.17;;;0.50;;
67595;SDS011;54410;48.694;8.934;2023-05-10T13:31:28;0.63;;;0.50;;
67595;SDS011;54410;48.694;8.934;2023-05-10T13:33:54;0.40;;;0.40;;
67595;SDS011;54410;48.694;8.934;2023-05-10T13:36:20;0.57;;;0.40;;
67595;SDS011;54410;48.694;8.934;2023-05-10T13:38:46;1.05;;;0.47;;
67595;SDS011;54410;48.694;8.934;2023-05-10T13:41:11;0.60;;;0.60;;
67595;SDS011;54410;48.694;8.934;2023-05-10T13:43:37;1.83;;;0.68;;
67595;SDS011;54410;48.694;8.934;2023-05-10T13:46:03;1.80;;;0.60;;
67595;SDS011;54410;48.694;8.934;2023-05-10T13:48:29;4.50;;;1.85;;
67595;SDS011;54410;48.694;8.934;2023-05-10T13:50:55;1.20;;;1.02;;
67595;SDS011;54410;48.694;8.934;2023-05-10T13:53:21;1.27;;;0.50;;
67595;SDS011;54410;48.694;8.934;2023-05-10T13:55:47;1.35;;;0.75;;
67595;SDS011;54410;48.694;8.934;2023-05-10T13:58:13;3.70;;;3.40;;
67595;SDS011;54410;48.694;8.934;2023-05-10T14:00:39;2.45;;;1.17;;
67595;SDS011;54410;48.694;8.934;2023-05-10T14:03:05;3.13;;;0.70;;
67595;SDS011;54410;48.694;8.934;2023-05-10T14:05:31;1.27;;;0.75;;
67595;SDS011;54410;48.694;8.934;2023-05-10T14:07:57;0.60;;;0.60;;
67595;SDS011;54410;48.694;8.934;2023-05-10T14:10:24;0.93;;;0.60;;
67595;SDS011;54410;48.694;8.934;2023-05-10T14:12:50;1.42;;;0.60;;
67595;SDS011;54410;48.694;8.934;2023-05-10T14:15:16;1.30;;;0.70;;
67595;SDS011;54410;48.694;8.934;2023-05-10T14:17:42;0.65;;;0.40;;
67595;SDS011;54410;48.694;8.934;2023-05-10T14:20:08;0.45;;;0.40;;
67595;SDS011;54410;48.694;8.934;2023-05-10T14:22:34;1.52;;;0.57;;
67595;SDS011;54410;48.694;8.934;2023-05-10T14:25:00;0.57;;;0.32;;
67595;SDS011;54410;48.694;8.934;2023-05-10T14:27:26;1.83;;;0.70;;
67595;SDS011;54410;48.694;8.934;2023-05-10T14:29:52;0.40;;;0.40;;
67595;SDS011;54410;48.694;8.934;2023-05-10T14:32:19;0.95;;;0.38;;
67595;SDS011;54410;48.694;8.934;2023-05-10T14:34:45;1.85;;;0.50;;
67595;SDS011;54410;48.694;8.934;2023-05-10T14:37:11;0.68;;;0.50;;
67595;SDS011;54410;48.694;8.934;2023-05-10T14:39:37;0.40;;;0.40;;
67595;SDS011;54410;48.694;8.934;2023-05-10T14:42:03;0.45;;;0.30;;
67595;SDS011;54410;48.694;8.934;2023-05-10T14:44:29;2.60;;;0.55;;
67595;SDS011;54410;48.694;8.934;2023-05-10T14:46:55;0.95;;;0.50;;
67595;SDS011;54410;48.694;8.934;2023-05-10T14:49:21;0.47;;;0.40;;
67595;SDS011;54410;48.694;8.934;2023-05-10T14:51:49;1.70;;;0.35;;
67595;SDS011;54410;48.694;8.934;2023-05-10T14:54:15;0.50;;;0.40;;
67595;SDS011;54410;48.694;8.934;2023-05-10T14:56:41;0.60;;;0.35;;
67595;SDS011;54410;48.694;8.934;2023-05-10T14:59:07;0.73;;;0.50;;
67595;SDS011;54410;48.694;8.934;2023-05-10T15:01:33;1.65;;;0.30;;
67595;SDS011;54410;48.694;8.934;2023-05-10T15:04:02;1.17;;;0.38;;
67595;SDS011;54410;48.694;8.934;2023-05-10T15:06:31;3.25;;;0.55;;
67595;SDS011;54410;48.694;8.934;2023-05-10T15:08:59;0.82;;;0.40;;
67595;SDS011;54410;48.694;8.934;2023-05-10T15:11:25;1.05;;;0.60;;
67595;SDS011;54410;48.694;8.934;2023-05-10T15:13:51;1.27;;;0.40;;
67595;SDS011;54410;48.694;8.934;2023-05-10T15:16:17;0.28;;;0.28;;
67595;SDS011;54410;48.694;8.934;2023-05-10T15:18:43;0.40;;;0.40;;
67595;SDS011;54410;48.694;8.934;2023-05-10T15:21:09;1.63;;;0.40;;
67595;SDS011;54410;48.694;8.934;2023-05-10T15:23:35;1.48;;;0.32;;